createdAt,value
2018-06-05T00:01:50.158Z,95.40
2018-06-05T00:04:18.384Z,95.60
2018-06-05T00:06:46.668Z,95.90
2018-06-05T00:09:14.825Z,95.90
2018-06-05T00:14:10.934Z,96.60
2018-06-05T00:16:39.107Z,97.10
2018-06-05T00:19:07.286Z,97.20
2018-06-05T00:21:35.475Z,97.30
2018-06-05T00:24:03.626Z,97.40
2018-06-05T00:26:31.792Z,97.50
2018-06-05T00:28:59.978Z,97.30
2018-06-05T00:31:28.131Z,97.40
2018-06-05T00:33:56.306Z,97.30
2018-06-05T00:36:24.468Z,97.40
2018-06-05T00:38:52.616Z,97.60
2018-06-05T00:41:20.871Z,97.50
2018-06-05T00:43:49.014Z,97.70
2018-06-05T00:46:17.169Z,98.00
2018-06-05T00:48:45.313Z,98.10
2018-06-05T00:51:24.678Z,98.30
2018-06-05T00:53:52.840Z,98.30
2018-06-05T00:56:21.095Z,98.40
2018-06-05T00:58:49.258Z,98.40
2018-06-05T01:01:17.667Z,98.50
2018-06-05T01:03:45.834Z,98.50
2018-06-05T01:06:13.993Z,98.50
2018-06-05T01:08:42.809Z,98.40
2018-06-05T01:11:11.013Z,98.50
2018-06-05T01:13:39.156Z,98.50
2018-06-05T01:16:25.047Z,98.80
2018-06-05T01:18:53.207Z,98.90
2018-06-05T01:21:21.367Z,99.00
2018-06-05T01:23:49.495Z,99.30
2018-06-05T01:26:17.743Z,99.60
2018-06-05T01:28:45.892Z,99.70
2018-06-05T01:31:14.055Z,99.90
2018-06-05T01:33:42.229Z,99.90
2018-06-05T01:36:10.382Z,99.90
2018-06-05T01:38:38.546Z,99.90
2018-06-05T01:41:06.706Z,99.90
2018-06-05T01:43:34.875Z,99.90
2018-06-05T01:46:03.003Z,99.90
2018-06-05T01:48:31.228Z,99.90
2018-06-05T01:50:59.363Z,99.90
2018-06-05T01:53:27.514Z,99.90
2018-06-05T01:55:55.700Z,99.90
2018-06-05T01:58:23.835Z,99.90
2018-06-05T02:00:51.997Z,99.90
2018-06-05T02:03:20.152Z,99.90
2018-06-05T02:05:48.308Z,99.90
2018-06-05T02:08:16.468Z,99.90
2018-06-05T02:10:44.631Z,99.90
2018-06-05T02:13:12.783Z,99.90
2018-06-05T02:15:40.939Z,99.90
2018-06-05T02:18:09.115Z,99.90
2018-06-05T02:20:37.283Z,99.90
2018-06-05T02:23:05.452Z,99.90
2018-06-05T02:25:33.633Z,99.90
2018-06-05T02:28:01.804Z,99.90
2018-06-05T02:30:29.970Z,99.90
2018-06-05T02:32:58.123Z,99.90
2018-06-05T02:35:32.205Z,99.90
2018-06-05T02:38:00.380Z,99.90
2018-06-05T02:40:28.592Z,99.90
2018-06-05T02:42:56.781Z,99.90
2018-06-05T02:45:24.952Z,99.90
2018-06-05T02:47:53.111Z,99.90
2018-06-05T02:50:21.266Z,99.90
2018-06-05T02:52:49.439Z,99.90
2018-06-05T02:55:17.624Z,99.90
2018-06-05T02:57:45.799Z,99.90
2018-06-05T03:00:13.960Z,99.90
2018-06-05T03:02:42.093Z,99.90
2018-06-05T03:05:10.238Z,99.90
2018-06-05T03:07:38.468Z,99.90
2018-06-05T03:10:06.639Z,99.90
2018-06-05T03:12:34.845Z,99.90
2018-06-05T03:15:02.992Z,99.90
2018-06-05T03:17:31.166Z,99.90
2018-06-05T03:19:59.381Z,99.90
2018-06-05T03:22:27.556Z,99.90
2018-06-05T03:24:55.684Z,99.90
2018-06-05T03:27:23.923Z,99.90
2018-06-05T03:29:52.090Z,99.90
2018-06-05T03:32:20.338Z,99.90
2018-06-05T03:34:48.504Z,99.90
2018-06-05T03:37:16.717Z,99.90
2018-06-05T03:39:44.881Z,99.90
2018-06-05T03:42:13.095Z,99.90
2018-06-05T03:44:41.251Z,99.90
2018-06-05T03:47:09.400Z,99.90
2018-06-05T03:49:40.597Z,99.90
2018-06-05T03:52:09.363Z,99.90
2018-06-05T03:54:37.622Z,99.90
2018-06-05T03:57:05.975Z,99.90
2018-06-05T03:59:37.551Z,99.90
2018-06-05T04:02:05.725Z,99.90
2018-06-05T04:04:33.893Z,99.90
2018-06-05T04:07:02.061Z,99.90
2018-06-05T04:09:30.221Z,99.90
2018-06-05T04:11:58.396Z,99.90
2018-06-05T04:14:26.530Z,99.90
2018-06-05T04:16:54.698Z,99.90
2018-06-05T04:19:22.850Z,99.90
2018-06-05T04:21:51.133Z,99.90
2018-06-05T04:24:19.300Z,99.90
2018-06-05T04:26:47.458Z,99.90
2018-06-05T04:29:15.630Z,99.90
2018-06-05T04:31:43.816Z,99.90
2018-06-05T04:34:11.982Z,99.90
2018-06-05T04:36:40.155Z,99.90
2018-06-05T04:39:08.342Z,99.90
2018-06-05T04:41:36.536Z,99.90
2018-06-05T04:44:04.795Z,99.90
2018-06-05T04:46:32.960Z,99.90
2018-06-05T04:49:01.133Z,99.90
2018-06-05T04:51:29.320Z,99.90
2018-06-05T04:53:57.491Z,99.90
2018-06-05T04:56:25.684Z,99.90
2018-06-05T04:58:53.867Z,99.90
2018-06-05T05:01:22.034Z,99.90
2018-06-05T05:03:50.232Z,99.90
2018-06-05T05:06:18.453Z,99.90
2018-06-05T05:08:46.627Z,99.90
2018-06-05T05:11:14.794Z,99.90
2018-06-05T05:13:42.974Z,99.50
2018-06-05T05:16:11.131Z,98.90
2018-06-05T05:18:39.300Z,97.80
2018-06-05T05:21:07.527Z,97.70
2018-06-05T05:23:35.774Z,97.80
2018-06-05T05:26:03.948Z,98.10
2018-06-05T05:28:32.131Z,98.30
2018-06-05T05:31:00.316Z,98.60
2018-06-05T05:33:28.487Z,99.20
2018-06-05T05:35:56.718Z,99.20
2018-06-05T05:38:24.870Z,99.00
2018-06-05T05:40:53.026Z,98.80
2018-06-05T05:43:21.292Z,98.70
2018-06-05T05:45:49.470Z,98.90
2018-06-05T05:50:45.562Z,98.30
2018-06-05T05:53:13.745Z,98.20
2018-06-05T05:55:41.943Z,97.80
2018-06-05T05:58:10.242Z,97.20
2018-06-05T06:00:38.468Z,96.90
2018-06-05T06:03:06.689Z,96.40
2018-06-05T06:05:34.867Z,96.30
2018-06-05T06:08:03.063Z,96.10
2018-06-05T06:10:31.210Z,95.40
2018-06-05T06:12:59.436Z,94.90
2018-06-05T06:15:27.611Z,93.80
2018-06-05T06:18:09.101Z,92.90
2018-06-05T06:20:37.589Z,92.30
2018-06-05T06:23:05.808Z,91.70
2018-06-05T06:25:33.988Z,91.80
2018-06-05T06:28:02.199Z,92.00
2018-06-05T06:30:30.408Z,91.30
2018-06-05T06:32:58.550Z,91.00
2018-06-05T06:35:26.751Z,90.80
2018-06-05T06:37:54.904Z,90.40
2018-06-05T06:40:23.150Z,90.20
2018-06-05T06:42:51.318Z,87.70
2018-06-05T06:45:19.522Z,87.50
2018-06-05T06:47:48.709Z,86.00
2018-06-05T06:50:16.872Z,86.40
2018-06-05T06:52:45.030Z,86.70
2018-06-05T06:55:13.208Z,85.90
2018-06-05T06:57:41.413Z,87.60
2018-06-05T07:00:09.612Z,88.10
2018-06-05T07:02:37.769Z,87.50
2018-06-05T07:05:05.939Z,87.80
2018-06-05T07:07:34.181Z,88.70
2018-06-05T07:10:02.474Z,88.10
2018-06-05T07:12:30.676Z,88.20
2018-06-05T07:14:58.856Z,88.80
2018-06-05T07:17:27.013Z,88.60
2018-06-05T07:19:55.177Z,88.50
2018-06-05T07:22:23.383Z,87.00
2018-06-05T07:24:51.568Z,87.40
2018-06-05T07:27:19.758Z,87.40
2018-06-05T07:29:47.940Z,84.90
2018-06-05T07:32:16.068Z,84.60
2018-06-05T07:34:44.233Z,83.80
2018-06-05T07:37:12.411Z,83.90
2018-06-05T07:39:40.645Z,83.60
2018-06-05T07:42:08.797Z,81.40
2018-06-05T07:44:36.951Z,81.70
2018-06-05T07:47:05.248Z,81.10
2018-06-05T07:49:33.426Z,80.60
2018-06-05T07:52:07.467Z,81.80
2018-06-05T07:54:35.820Z,81.20
2018-06-05T07:57:04.044Z,80.20
2018-06-05T07:59:32.259Z,81.40
2018-06-05T08:02:00.448Z,79.90
2018-06-05T08:04:28.676Z,79.70
2018-06-05T08:06:56.864Z,79.80
2018-06-05T08:09:25.105Z,79.50
2018-06-05T08:11:53.375Z,79.80
2018-06-05T08:14:21.590Z,79.90
2018-06-05T08:16:49.767Z,80.10
2018-06-05T08:19:17.961Z,80.40
2018-06-05T08:21:46.169Z,80.90
2018-06-05T08:24:14.376Z,80.90
2018-06-05T08:26:59.128Z,80.20
2018-06-05T08:29:27.363Z,80.30
2018-06-05T08:31:55.547Z,79.60
2018-06-05T08:34:23.803Z,79.80
2018-06-05T08:36:52.048Z,80.10
2018-06-05T08:39:20.278Z,80.30
2018-06-05T08:41:48.519Z,79.30
2018-06-05T08:44:16.739Z,79.80
2018-06-05T08:46:45.007Z,78.60
2018-06-05T08:49:13.189Z,78.80
2018-06-05T08:51:41.440Z,78.40
2018-06-05T08:54:09.705Z,79.20
2018-06-05T08:56:38.021Z,79.00
2018-06-05T08:59:06.260Z,79.30
2018-06-05T09:01:34.451Z,79.40
2018-06-05T09:04:02.711Z,77.80
2018-06-05T09:06:30.953Z,76.90
2018-06-05T09:08:59.156Z,76.90
2018-06-05T09:11:27.370Z,76.40
2018-06-05T09:13:55.566Z,76.30
2018-06-05T09:16:23.778Z,77.10
2018-06-05T09:18:51.984Z,77.00
2018-06-05T09:21:20.245Z,76.90
2018-06-05T09:23:48.436Z,77.90
2018-06-05T09:26:16.608Z,76.90
2018-06-05T09:28:44.835Z,76.60
2018-06-05T09:31:13.026Z,76.40
2018-06-05T09:33:41.326Z,77.60
2018-06-05T09:36:09.526Z,77.20
2018-06-05T09:38:37.771Z,76.00
2018-06-05T09:41:05.957Z,74.90
2018-06-05T09:43:34.203Z,74.00
2018-06-05T09:46:02.408Z,74.00
2018-06-05T09:50:58.560Z,73.10
2018-06-05T09:53:26.736Z,72.90
2018-06-05T09:55:54.963Z,72.50
2018-06-05T09:58:23.357Z,74.20
2018-06-05T10:00:52.248Z,74.30
2018-06-05T10:03:23.493Z,73.40
2018-06-05T10:05:51.831Z,73.30
2018-06-05T10:08:20.031Z,72.40
2018-06-05T10:10:48.274Z,72.40
2018-06-05T10:13:16.485Z,72.10
2018-06-05T10:15:44.755Z,71.80
2018-06-05T10:18:13.151Z,71.60
2018-06-05T10:20:41.361Z,70.90
2018-06-05T10:23:09.559Z,72.10
2018-06-05T10:25:42.275Z,73.10
2018-06-05T10:28:10.467Z,73.90
2018-06-05T10:30:38.645Z,73.40
2018-06-05T10:33:06.838Z,73.00
2018-06-05T10:35:35.092Z,71.80
2018-06-05T10:38:03.349Z,73.00
2018-06-05T10:40:31.511Z,75.30
2018-06-05T10:42:59.697Z,75.20
2018-06-05T10:45:27.915Z,74.30
2018-06-05T10:47:56.105Z,73.30
2018-06-05T10:50:39.804Z,73.00
2018-06-05T10:53:09.083Z,72.80
2018-06-05T10:55:37.877Z,71.80
2018-06-05T10:58:06.043Z,72.80
2018-06-05T11:00:34.327Z,73.60
2018-06-05T11:03:02.577Z,72.70
2018-06-05T11:05:30.757Z,76.40
2018-06-05T11:08:02.779Z,73.80
2018-06-05T11:10:30.942Z,73.30
2018-06-05T11:13:07.267Z,74.50
2018-06-05T11:15:35.434Z,71.30
2018-06-05T11:18:06.643Z,69.90
2018-06-05T11:20:34.862Z,69.50
2018-06-05T11:23:03.147Z,70.40
2018-06-05T11:25:37.470Z,69.40
2018-06-05T11:28:05.659Z,70.10
2018-06-05T11:30:33.897Z,71.50
2018-06-05T11:33:02.091Z,70.70
2018-06-05T11:35:30.362Z,71.00
2018-06-05T11:37:58.624Z,70.50
2018-06-05T11:40:26.831Z,70.70
2018-06-05T11:42:55.028Z,69.00
2018-06-05T11:45:23.258Z,68.20
2018-06-05T11:47:51.485Z,69.50
2018-06-05T11:50:19.677Z,69.70
2018-06-05T11:52:47.978Z,65.90
2018-06-05T11:55:16.193Z,67.60
2018-06-05T12:00:42.356Z,68.50
2018-06-05T12:03:10.573Z,70.20
2018-06-05T12:05:38.802Z,66.70
2018-06-05T12:08:07.044Z,68.80
2018-06-05T12:10:35.328Z,68.40
2018-06-05T12:13:03.583Z,67.90
2018-06-05T12:15:31.929Z,69.00
2018-06-05T12:18:00.138Z,69.00
2018-06-05T12:20:28.514Z,67.90
2018-06-05T12:22:56.735Z,67.40
2018-06-05T12:25:25.038Z,66.50
2018-06-05T12:27:53.243Z,67.90
2018-06-05T12:30:21.504Z,68.20
2018-06-05T12:32:49.742Z,67.90
2018-06-05T12:35:17.982Z,65.80
2018-06-05T12:37:46.378Z,66.00
2018-06-05T12:40:15.786Z,66.20
2018-06-05T12:42:44.892Z,65.60
2018-06-05T12:45:13.506Z,67.30
2018-06-05T12:47:41.764Z,66.00
2018-06-05T12:50:10.270Z,65.00
2018-06-05T12:52:38.606Z,65.40
2018-06-05T12:55:06.887Z,59.70
2018-06-05T12:57:35.240Z,62.60
2018-06-05T13:00:03.568Z,63.00
2018-06-05T13:02:31.786Z,59.50
2018-06-05T13:05:00.030Z,59.90
2018-06-05T13:07:28.963Z,61.40
2018-06-05T13:09:57.166Z,61.30
2018-06-05T13:12:25.632Z,61.40
2018-06-05T13:14:53.950Z,62.70
2018-06-05T13:17:22.554Z,62.70
2018-06-05T13:19:50.819Z,62.60
2018-06-05T13:22:19.044Z,63.10
2018-06-05T13:24:47.509Z,61.90
2018-06-05T13:27:15.820Z,62.90
2018-06-05T13:29:44.240Z,60.90
2018-06-05T13:32:12.549Z,59.50
2018-06-05T13:34:40.807Z,59.30
2018-06-05T13:37:09.117Z,59.90
2018-06-05T13:39:37.381Z,60.40
2018-06-05T13:42:05.729Z,60.60
2018-06-05T13:44:34.032Z,60.00
2018-06-05T13:47:02.323Z,60.50
2018-06-05T13:49:30.568Z,60.90
2018-06-05T13:51:58.888Z,61.80
2018-06-05T13:54:27.241Z,61.90
2018-06-05T13:56:55.496Z,61.60
2018-06-05T13:59:24.052Z,59.80
2018-06-05T14:01:52.270Z,61.20
2018-06-05T14:04:21.072Z,59.90
2018-06-05T14:06:50.606Z,60.90
2018-06-05T14:09:19.193Z,62.10
2018-06-05T14:11:47.453Z,62.60
2018-06-05T14:14:15.661Z,63.20
2018-06-05T14:16:43.850Z,63.10
2018-06-05T14:19:12.057Z,64.10
2018-06-05T14:21:40.301Z,63.40
2018-06-05T14:24:08.507Z,63.20
2018-06-05T14:26:36.723Z,61.90
2018-06-05T14:29:04.919Z,62.70
2018-06-05T14:31:33.120Z,62.40
2018-06-05T14:34:01.477Z,61.20
2018-06-05T14:36:29.685Z,61.10
2018-06-05T14:38:57.984Z,60.60
2018-06-05T14:41:26.188Z,61.00
2018-06-05T14:43:54.461Z,59.50
2018-06-05T14:46:22.643Z,60.80
2018-06-05T14:48:51.346Z,60.50
2018-06-05T14:51:21.191Z,59.10
2018-06-05T14:53:49.388Z,59.10
2018-06-05T14:56:17.597Z,59.50
2018-06-05T14:58:45.791Z,59.90
2018-06-05T15:01:14.008Z,59.90
2018-06-05T15:03:42.256Z,59.10
2018-06-05T15:06:10.476Z,59.40
2018-06-05T15:08:38.755Z,59.80
2018-06-05T15:11:07.109Z,59.70
2018-06-05T15:13:35.339Z,59.30
2018-06-05T15:16:03.590Z,59.00
2018-06-05T15:18:31.864Z,58.30
2018-06-05T15:21:00.099Z,58.70
2018-06-05T15:26:17.761Z,58.80
2018-06-05T15:28:45.955Z,57.60
2018-06-05T15:31:14.216Z,58.00
2018-06-05T15:33:42.424Z,57.90
2018-06-05T15:36:10.615Z,57.10
2018-06-05T15:38:38.775Z,58.30
2018-06-05T15:41:06.982Z,58.50
2018-06-05T15:43:35.130Z,57.30
2018-06-05T15:46:03.403Z,57.10
2018-06-05T15:48:31.612Z,59.60
2018-06-05T15:50:59.827Z,58.00
2018-06-05T15:53:27.995Z,58.00
2018-06-05T15:55:56.169Z,56.90
2018-06-05T15:58:24.388Z,56.50
2018-06-05T16:00:52.555Z,56.30
2018-06-05T16:03:20.791Z,59.40
2018-06-05T16:05:48.984Z,58.30
2018-06-05T16:08:34.174Z,60.00
2018-06-05T16:11:02.466Z,59.00
2018-06-05T16:13:30.680Z,59.80
2018-06-05T16:15:58.863Z,58.20
2018-06-05T16:18:27.079Z,57.40
2018-06-05T16:20:55.231Z,57.20
2018-06-05T16:23:23.450Z,57.80
2018-06-05T16:25:51.739Z,57.50
2018-06-05T16:28:20.092Z,57.90
2018-06-05T16:30:48.561Z,57.70
2018-06-05T16:33:16.841Z,55.20
2018-06-05T16:35:45.090Z,54.60
2018-06-05T16:38:13.363Z,55.40
2018-06-05T16:40:41.740Z,55.00
2018-06-05T16:43:16.591Z,55.30
2018-06-05T16:45:46.096Z,55.70
2018-06-05T16:48:14.326Z,56.00
2018-06-05T16:50:42.552Z,55.80
2018-06-05T16:53:10.872Z,55.60
2018-06-05T16:55:39.223Z,56.10
2018-06-05T16:58:07.443Z,57.00
2018-06-05T17:00:35.788Z,57.00
2018-06-05T17:03:04.131Z,57.00
2018-06-05T17:05:32.353Z,57.50
2018-06-05T17:08:00.688Z,56.80
2018-06-05T17:13:26.339Z,57.60
2018-06-05T17:15:54.548Z,57.70
2018-06-05T17:18:22.761Z,56.00
2018-06-05T17:20:51.150Z,53.60
2018-06-05T17:23:19.468Z,52.70
2018-06-05T17:25:47.721Z,52.00
2018-06-05T17:28:15.987Z,51.60
2018-06-05T17:30:44.242Z,51.50
2018-06-05T17:33:12.801Z,51.80
2018-06-05T17:35:41.107Z,53.10
2018-06-05T17:38:09.452Z,54.30
2018-06-05T17:40:37.801Z,55.30
2018-06-05T17:43:06.048Z,56.00
2018-06-05T17:45:34.420Z,56.10
2018-06-05T17:48:03.253Z,56.30
2018-06-05T17:50:31.569Z,56.80
2018-06-05T17:52:59.870Z,56.70
2018-06-05T17:55:28.209Z,56.60
2018-06-05T17:57:56.483Z,57.00
2018-06-05T18:00:24.803Z,57.20
2018-06-05T18:02:53.040Z,57.70
2018-06-05T18:05:21.454Z,57.80
2018-06-05T18:07:49.675Z,58.00
2018-06-05T18:10:17.894Z,58.50
2018-06-05T18:12:46.240Z,58.90
2018-06-05T18:15:14.452Z,59.70
2018-06-05T18:17:42.719Z,60.00
2018-06-05T18:20:10.981Z,60.70
2018-06-05T18:22:39.275Z,60.80
2018-06-05T18:25:07.535Z,61.20
2018-06-05T18:27:35.762Z,61.80
2018-06-05T18:30:04.005Z,62.50
2018-06-05T18:32:32.235Z,62.70
2018-06-05T18:35:00.511Z,62.20
2018-06-05T18:37:28.739Z,62.30
2018-06-05T18:39:56.971Z,62.60
2018-06-05T18:42:25.250Z,62.90
2018-06-05T18:44:53.435Z,63.10
2018-06-05T18:47:21.700Z,63.80
2018-06-05T18:49:49.898Z,64.50
2018-06-05T18:52:18.102Z,65.40
2018-06-05T18:54:46.409Z,65.20
2018-06-05T18:57:14.699Z,65.90
2018-06-05T18:59:42.960Z,66.10
2018-06-05T19:02:11.162Z,66.20
2018-06-05T19:04:39.385Z,66.90
2018-06-05T19:07:07.619Z,67.20
2018-06-05T19:09:35.848Z,67.90
2018-06-05T19:12:04.048Z,68.20
2018-06-05T19:14:32.334Z,69.40
2018-06-05T19:17:00.567Z,69.70
2018-06-05T19:19:28.853Z,71.30
2018-06-05T19:21:57.066Z,70.60
2018-06-05T19:24:25.309Z,71.20
2018-06-05T19:26:53.495Z,73.20
2018-06-05T19:29:21.807Z,73.50
2018-06-05T19:31:50.000Z,73.40
2018-06-05T19:34:18.280Z,75.60
2018-06-05T19:36:46.537Z,76.30
2018-06-05T19:39:14.794Z,77.60
2018-06-05T19:41:43.036Z,78.10
2018-06-05T19:44:11.400Z,78.40
2018-06-05T19:46:39.728Z,78.80
2018-06-05T19:49:07.896Z,80.50
2018-06-05T19:51:36.125Z,80.40
2018-06-05T19:54:05.669Z,81.80
2018-06-05T19:56:33.893Z,83.10
2018-06-05T19:59:02.188Z,82.70
2018-06-05T20:01:30.495Z,83.40
2018-06-05T20:03:58.713Z,84.80
2018-06-05T20:06:27.017Z,85.30
2018-06-05T20:08:55.292Z,86.10
2018-06-05T20:11:23.544Z,86.50
2018-06-05T20:13:51.772Z,87.10
2018-06-05T20:16:20.008Z,87.40
2018-06-05T20:18:48.368Z,87.60
2018-06-05T20:21:16.580Z,88.80
2018-06-05T20:23:44.844Z,89.50
2018-06-05T20:26:13.243Z,89.90
2018-06-05T20:28:41.456Z,90.20
2018-06-05T20:31:09.655Z,90.40
2018-06-05T20:33:38.115Z,90.50
2018-06-05T20:36:06.335Z,90.70
2018-06-05T20:38:34.579Z,90.90
2018-06-05T20:41:02.812Z,91.20
2018-06-05T20:45:59.056Z,91.40
2018-06-05T20:50:55.344Z,91.70
2018-06-05T20:53:23.640Z,91.80
2018-06-05T20:55:51.961Z,92.10
2018-06-05T20:58:20.227Z,92.00
2018-06-05T21:00:48.497Z,92.20
2018-06-05T21:03:16.775Z,92.10
2018-06-05T21:05:45.013Z,92.10
2018-06-05T21:08:13.261Z,92.30
2018-06-05T21:10:41.605Z,92.10
2018-06-05T21:13:09.862Z,92.00
2018-06-05T21:15:38.234Z,92.00
2018-06-05T21:18:06.513Z,91.90
2018-06-05T21:20:34.771Z,92.10
2018-06-05T21:23:03.065Z,92.00
2018-06-05T21:25:31.347Z,92.00
2018-06-05T21:28:01.773Z,92.20
2018-06-05T21:30:30.100Z,91.90
2018-06-05T21:32:58.376Z,91.80
2018-06-05T21:35:26.620Z,92.10
2018-06-05T21:37:54.852Z,92.30
2018-06-05T21:40:23.044Z,92.00
2018-06-05T21:42:51.327Z,92.20
2018-06-05T21:45:19.603Z,92.10
2018-06-05T21:47:47.928Z,92.20
2018-06-05T21:50:16.256Z,92.00
2018-06-05T21:52:58.307Z,92.00
2018-06-05T21:55:26.686Z,92.20
2018-06-05T21:58:02.868Z,92.30
2018-06-05T22:00:34.453Z,92.40
2018-06-05T22:03:02.828Z,92.20
2018-06-05T22:05:34.539Z,92.30
2018-06-05T22:08:04.883Z,92.40
2018-06-05T22:10:33.236Z,92.50
2018-06-05T22:13:01.450Z,92.60
2018-06-05T22:15:29.722Z,92.90
2018-06-05T22:17:58.034Z,93.20
2018-06-05T22:20:26.345Z,93.20
2018-06-05T22:22:54.571Z,93.40
2018-06-05T22:25:22.816Z,93.50
2018-06-05T22:27:51.007Z,93.60
2018-06-05T22:30:19.309Z,93.60
2018-06-05T22:32:47.521Z,93.70
2018-06-05T22:35:15.726Z,94.00
2018-06-05T22:37:43.994Z,93.90
2018-06-05T22:40:12.151Z,94.00
2018-06-05T22:42:40.336Z,94.00
2018-06-05T22:45:08.527Z,94.20
2018-06-05T22:47:36.700Z,94.50
2018-06-05T22:50:04.915Z,94.70
2018-06-05T22:52:33.181Z,95.00
2018-06-05T22:55:01.396Z,95.10
2018-06-05T22:57:29.598Z,95.40
2018-06-05T22:59:57.764Z,95.70
2018-06-05T23:02:25.953Z,96.10
2018-06-05T23:07:22.105Z,96.50
2018-06-05T23:09:50.277Z,96.60
2018-06-05T23:12:18.454Z,96.70
2018-06-05T23:14:46.632Z,97.10
2018-06-05T23:17:14.831Z,97.10
2018-06-05T23:19:43.054Z,97.10
2018-06-05T23:22:11.257Z,97.20
2018-06-05T23:24:39.521Z,97.30
2018-06-05T23:27:07.710Z,97.30
2018-06-05T23:29:35.907Z,97.70
2018-06-05T23:32:04.134Z,97.60
2018-06-05T23:34:32.413Z,97.80
2018-06-05T23:37:00.683Z,97.90
2018-06-05T23:39:35.395Z,98.20
2018-06-05T23:42:03.589Z,98.40
2018-06-05T23:46:59.777Z,98.50
2018-06-05T23:49:27.962Z,98.80
2018-06-05T23:51:59.356Z,99.10
2018-06-05T23:54:27.717Z,99.20
2018-06-05T23:56:56.011Z,99.40
2018-06-05T23:59:24.386Z,99.50
